This is the latest recevied weather packets stored in our database for station/object KN6CW-3. If no packets are shown the sender has not sent any weather packets the latest 10 day(s).
| Time | Temp. | Humidity | Pressure | Rain* | Wind** | Luminosity | Snow |
|---|---|---|---|---|---|---|---|
| 1777601575 | 5.56° C | 96% | 1012 hPa | 0.25 mm | - | 0 W/m² | - |
| 1777601274 | 5.56° C | 96% | 1012 hPa | 0.25 mm | - | 0 W/m² | - |
| 1777600974 | 6.11° C | 96% | 1012.1 hPa | 0.51 mm | - | 0 W/m² | - |
| 1777600763 | 6.11° C | 96% | 1012.1 hPa | 0.51 mm | - | 0 W/m² | - |
| 1777600673 | 6.11° C | 96% | 1012.1 hPa | 0.51 mm | - | 0 W/m² | - |
| 1777600493 | 6.11° C | 96% | 1011.4 hPa | 0.76 mm | - | 0 W/m² | - |
| 1777600491 | 6.11° C | 96% | 1011.2 hPa | 0.76 mm | - | 0 W/m² | - |
| 1777600373 | 6.11° C | 96% | 1012.1 hPa | 0.51 mm | - | 0 W/m² | - |
| 1777600073 | 6.11° C | 96% | 1012 hPa | 0.51 mm | - | 0 W/m² | - |
| 1777599773 | 6.11° C | 96% | 1012 hPa | 0.25 mm | - | 0 W/m² | - |
| 1777599472 | 6.11° C | 96% | 1012 hPa | 0.51 mm | - | 0 W/m² | - |
| 1777599172 | 6.11° C | 96% | 1011.9 hPa | 0.51 mm | - | 0 W/m² | - |
| 1777598965 | 6.11° C | 96% | 1011.8 hPa | 0.51 mm | - | 0 W/m² | - |
| 1777598872 | 6.11° C | 96% | 1011.8 hPa | 0.51 mm | - | 0 W/m² | - |
| 1777598571 | 6.11° C | 96% | 1011.8 hPa | 0.51 mm | - | 0 W/m² | - |
| 1777598336 | 6.11° C | 96% | 1011.7 hPa | 0.76 mm | - | 0 W/m² | - |
| 1777598271 | 6.11° C | 96% | 1011.7 hPa | 0.76 mm | - | 0 W/m² | - |
| 1777597971 | 6.11° C | 96% | 1011.5 hPa | 0.76 mm | - | 0 W/m² | - |
| 1777597670 | 6.11° C | 96% | 1011.4 hPa | 0.76 mm | - | 0 W/m² | - |
| 1777597371 | 6.11° C | 96% | 1011.2 hPa | 0.76 mm | - | 0 W/m² | - |
| 1777597195 | 6.11° C | 96% | 1011.2 hPa | 0.76 mm | - | 0 W/m² | - |
| 1777597070 | 6.11° C | 96% | 1011.2 hPa | 0.76 mm | - | 0 W/m² | - |
| 1777596895 | 6.67° C | 96% | 1010.5 hPa | 1.27 mm | - | 0 W/m² | - |
| 1777596769 | 6.11° C | 96% | 1011.1 hPa | 0.76 mm | - | 0 W/m² | - |
| 1777596469 | 6.67° C | 96% | 1011 hPa | 1.02 mm | - | 0 W/m² | - |
* Rain latest hour (hover to see other rain measurements)
** Current wind speed in m/s (hover to see current wind gust speed)